createdAt,value
2023-01-29T00:02:59.344Z,13.50
2023-01-29T00:08:05.781Z,13.60
2023-01-29T00:13:12.308Z,13.70
2023-01-29T00:18:19.115Z,13.70
2023-01-29T00:23:25.980Z,13.90
2023-01-29T00:28:32.338Z,13.90
2023-01-29T00:33:39.570Z,14.00
2023-01-29T00:38:56.313Z,14.20
2023-01-29T00:44:22.058Z,14.30
2023-01-29T00:49:28.614Z,14.40
2023-01-29T00:54:35.574Z,14.50
2023-01-29T00:59:41.861Z,14.50
2023-01-29T01:04:48.594Z,14.40
2023-01-29T01:10:12.208Z,14.20
2023-01-29T01:15:18.806Z,14.00
2023-01-29T01:20:26.080Z,14.00
2023-01-29T01:25:32.593Z,14.20
2023-01-29T01:31:43.685Z,14.80
2023-01-29T01:36:50.139Z,15.50
2023-01-29T01:41:56.153Z,15.90
2023-01-29T01:47:05.397Z,16.30
2023-01-29T01:52:12.360Z,16.70
2023-01-29T01:57:26.787Z,17.20
2023-01-29T02:02:54.933Z,17.60
2023-01-29T02:08:20.346Z,17.60
2023-01-29T02:13:27.197Z,17.80
2023-01-29T02:18:39.847Z,17.60
2023-01-29T02:23:55.540Z,17.90
2023-01-29T02:29:29.077Z,18.20
2023-01-29T02:35:08.962Z,18.50
2023-01-29T02:40:38.546Z,18.80
2023-01-29T02:46:12.075Z,18.90
2023-01-29T02:51:35.206Z,19.30
2023-01-29T02:57:25.371Z,19.50
2023-01-29T03:02:47.870Z,19.80
2023-01-29T03:08:00.579Z,19.70
2023-01-29T03:13:39.454Z,19.70
2023-01-29T03:18:53.801Z,19.80
2023-01-29T03:24:20.408Z,19.80
2023-01-29T03:29:47.548Z,19.80
2023-01-29T03:35:02.376Z,20.30
2023-01-29T03:40:16.163Z,20.30
2023-01-29T03:45:52.926Z,20.60
2023-01-29T03:51:16.472Z,20.60
2023-01-29T03:56:44.513Z,20.60
2023-01-29T04:02:12.170Z,20.30
2023-01-29T04:07:26.447Z,20.10
2023-01-29T04:13:25.405Z,20.00
2023-01-29T04:18:35.332Z,19.80
2023-01-29T04:23:51.024Z,19.80
2023-01-29T04:29:21.636Z,19.70
2023-01-29T04:35:03.764Z,19.90
2023-01-29T04:40:42.468Z,20.20
2023-01-29T04:46:12.157Z,22.30
2023-01-29T04:51:57.731Z,24.00
2023-01-29T04:57:31.354Z,25.00
2023-01-29T05:02:46.043Z,24.70
2023-01-29T05:08:07.603Z,25.80
2023-01-29T05:13:24.426Z,25.80
2023-01-29T05:29:52.610Z,26.80
2023-01-29T05:35:10.062Z,27.60
2023-01-29T05:40:22.225Z,26.30
2023-01-29T05:45:40.237Z,26.20
2023-01-29T05:51:02.670Z,26.40
2023-01-29T05:56:14.238Z,27.20
2023-01-29T06:01:26.850Z,27.90
2023-01-29T06:07:00.786Z,28.50
2023-01-29T06:12:14.993Z,29.30
2023-01-29T06:17:55.463Z,28.90
2023-01-29T06:23:10.497Z,28.50
2023-01-29T06:28:27.590Z,28.80
2023-01-29T06:33:59.877Z,28.90
2023-01-29T06:39:17.043Z,29.20
2023-01-29T06:49:55.199Z,30.30
2023-01-29T06:55:18.957Z,30.60
2023-01-29T07:00:42.664Z,31.20
2023-01-29T07:06:02.790Z,31.50
2023-01-29T07:16:58.845Z,30.50
2023-01-29T07:22:20.402Z,30.60
2023-01-29T07:27:32.590Z,30.30
2023-01-29T07:32:42.260Z,30.20
2023-01-29T07:38:01.309Z,30.10
2023-01-29T07:43:14.903Z,29.80
2023-01-29T07:48:43.778Z,29.90
2023-01-29T07:53:57.839Z,29.80
2023-01-29T07:59:29.076Z,29.70
2023-01-29T08:04:53.965Z,29.10
2023-01-29T08:10:07.778Z,27.10
2023-01-29T08:15:21.892Z,24.70
2023-01-29T08:20:32.235Z,23.60
2023-01-29T08:25:46.123Z,22.90
2023-01-29T08:30:58.702Z,22.20
2023-01-29T08:36:17.228Z,22.00
2023-01-29T08:47:06.491Z,21.40
2023-01-29T08:52:19.180Z,21.20
2023-01-29T08:57:34.688Z,21.00
2023-01-29T09:02:45.224Z,20.90
2023-01-29T09:07:59.901Z,20.60
2023-01-29T09:13:14.349Z,20.50
2023-01-29T09:18:26.436Z,20.40
2023-01-29T09:23:44.328Z,20.30
2023-01-29T09:29:05.027Z,20.10
2023-01-29T09:34:16.049Z,19.90
2023-01-29T09:39:26.021Z,19.90
2023-01-29T09:44:50.800Z,19.70
2023-01-29T09:50:08.985Z,19.60
2023-01-29T09:55:41.079Z,19.40
2023-01-29T10:01:07.810Z,19.20
2023-01-29T10:06:31.099Z,19.10
2023-01-29T10:12:18.863Z,18.90
2023-01-29T10:17:54.531Z,19.10
2023-01-29T10:23:34.644Z,19.00
2023-01-29T10:29:15.978Z,18.70
2023-01-29T10:34:47.950Z,18.50
2023-01-29T10:39:56.384Z,18.40
2023-01-29T10:45:33.013Z,18.30
2023-01-29T10:50:49.937Z,18.20
2023-01-29T11:02:05.680Z,17.70
2023-01-29T11:07:22.907Z,17.60
2023-01-29T11:12:35.351Z,17.40
2023-01-29T11:17:43.679Z,17.30
2023-01-29T11:22:59.295Z,17.30
2023-01-29T11:28:14.272Z,17.40
2023-01-29T11:33:27.170Z,17.30
2023-01-29T11:44:56.601Z,17.20
2023-01-29T11:50:09.321Z,17.00
2023-01-29T11:55:49.727Z,16.90
2023-01-29T12:12:43.281Z,17.00
2023-01-29T12:18:16.439Z,17.00
2023-01-29T12:31:05.199Z,16.70
2023-01-29T12:36:39.185Z,16.60
2023-01-29T12:42:47.027Z,16.50
2023-01-29T12:48:26.475Z,16.40
2023-01-29T12:53:46.307Z,16.30
2023-01-29T12:59:05.146Z,16.20
2023-01-29T13:04:43.436Z,16.20
2023-01-29T13:10:10.155Z,16.20
2023-01-29T13:15:34.446Z,16.20
2023-01-29T13:21:05.482Z,16.10
2023-01-29T13:26:31.981Z,16.10
2023-01-29T13:31:51.394Z,16.10
2023-01-29T13:37:12.997Z,16.20
2023-01-29T13:42:44.402Z,16.10
2023-01-29T13:48:16.066Z,16.10
2023-01-29T13:54:03.650Z,16.00
2023-01-29T13:59:43.465Z,16.00
2023-01-29T14:05:22.185Z,15.90
2023-01-29T14:10:40.026Z,15.90
2023-01-29T14:16:13.683Z,15.90
2023-01-29T14:22:08.386Z,15.90
2023-01-29T14:27:46.024Z,15.80
2023-01-29T14:33:09.446Z,15.80
2023-01-29T14:38:28.136Z,15.80
2023-01-29T14:43:51.740Z,15.80
2023-01-29T14:49:05.757Z,15.70
2023-01-29T14:54:41.016Z,15.60
2023-01-29T15:00:08.543Z,15.60
2023-01-29T15:05:41.889Z,15.50
2023-01-29T15:11:15.002Z,15.50
2023-01-29T15:17:20.427Z,15.30
2023-01-29T15:22:37.879Z,15.20
2023-01-29T15:27:54.415Z,15.00
2023-01-29T15:33:12.070Z,14.80
2023-01-29T15:38:34.094Z,14.70
2023-01-29T15:43:49.442Z,14.60
2023-01-29T15:49:00.251Z,14.50
2023-01-29T15:54:16.393Z,14.30
2023-01-29T15:59:26.769Z,14.20
2023-01-29T16:04:33.690Z,14.40
2023-01-29T16:09:47.266Z,14.40
2023-01-29T16:14:55.495Z,14.30
2023-01-29T16:20:08.376Z,14.30
2023-01-29T16:25:17.627Z,14.20
2023-01-29T16:30:29.531Z,14.10
2023-01-29T16:35:37.691Z,14.00
2023-01-29T16:41:07.604Z,14.00
2023-01-29T16:46:35.241Z,14.00
2023-01-29T16:51:41.992Z,13.90
2023-01-29T16:56:49.568Z,13.80
2023-01-29T17:02:17.840Z,13.80
2023-01-29T17:07:23.935Z,13.80
2023-01-29T17:12:31.683Z,13.80
2023-01-29T17:17:38.650Z,13.80
2023-01-29T17:22:44.374Z,13.90
2023-01-29T17:27:53.262Z,14.20
2023-01-29T17:32:59.582Z,14.10
2023-01-29T17:38:09.404Z,14.00
2023-01-29T17:43:19.822Z,14.00
2023-01-29T17:48:29.377Z,14.10
2023-01-29T17:53:47.680Z,14.00
2023-01-29T17:58:59.815Z,14.00
2023-01-29T18:04:09.128Z,13.80
2023-01-29T18:09:21.737Z,13.70
2023-01-29T18:14:27.420Z,13.50
2023-01-29T18:19:33.877Z,13.40
2023-01-29T18:24:38.827Z,13.40
2023-01-29T18:29:44.383Z,13.30
2023-01-29T18:34:50.175Z,13.30
2023-01-29T18:39:56.396Z,13.30
2023-01-29T18:45:02.388Z,13.20
2023-01-29T18:50:09.451Z,13.10
2023-01-29T18:55:15.609Z,13.10
2023-01-29T19:00:21.394Z,13.10
2023-01-29T19:05:27.293Z,13.30
2023-01-29T19:10:33.289Z,13.30
2023-01-29T19:15:38.891Z,13.20
2023-01-29T19:20:44.547Z,13.20
2023-01-29T19:25:50.522Z,13.10
2023-01-29T19:30:59.674Z,13.00
2023-01-29T19:36:06.481Z,12.90
2023-01-29T19:41:11.974Z,12.80
2023-01-29T19:46:17.828Z,12.80
2023-01-29T19:51:24.743Z,12.70
2023-01-29T19:56:30.296Z,12.70
2023-01-29T20:01:36.340Z,12.70
2023-01-29T20:06:42.299Z,12.60
2023-01-29T20:11:47.756Z,12.70
2023-01-29T20:16:53.914Z,12.70
2023-01-29T20:22:03.589Z,12.60
2023-01-29T20:27:09.817Z,12.50
2023-01-29T20:32:16.085Z,12.50
2023-01-29T20:37:21.488Z,12.60
2023-01-29T20:42:27.663Z,12.50
2023-01-29T20:47:33.354Z,12.50
2023-01-29T20:52:40.185Z,12.40
2023-01-29T20:57:46.118Z,12.50
2023-01-29T21:03:12.147Z,12.60
2023-01-29T21:08:17.439Z,12.60
2023-01-29T21:13:23.048Z,12.60
2023-01-29T21:18:29.187Z,12.60
2023-01-29T21:23:34.759Z,12.40
2023-01-29T21:28:40.397Z,12.20
2023-01-29T21:33:47.624Z,12.20
2023-01-29T21:38:53.737Z,12.20
2023-01-29T21:44:36.206Z,12.40
2023-01-29T21:49:43.717Z,12.60
2023-01-29T21:54:50.467Z,12.60
2023-01-29T21:59:57.193Z,12.60
2023-01-29T22:05:18.232Z,12.60
2023-01-29T22:10:25.273Z,12.70
2023-01-29T22:15:31.632Z,12.70
2023-01-29T22:20:38.165Z,12.80
2023-01-29T22:25:45.030Z,12.90
2023-01-29T22:30:50.751Z,12.90
2023-01-29T22:35:57.367Z,13.00
2023-01-29T22:41:03.191Z,12.90
2023-01-29T22:46:13.179Z,13.00
2023-01-29T22:51:19.179Z,13.00
2023-01-29T22:56:27.782Z,12.90
2023-01-29T23:01:34.585Z,12.90
2023-01-29T23:06:40.822Z,12.90
2023-01-29T23:11:46.465Z,12.90
2023-01-29T23:16:52.676Z,13.10
2023-01-29T23:21:58.381Z,13.20
2023-01-29T23:27:16.687Z,13.10
2023-01-29T23:32:23.479Z,13.10
2023-01-29T23:37:29.813Z,13.00
2023-01-29T23:42:35.810Z,12.80
2023-01-29T23:47:41.553Z,12.80
2023-01-29T23:52:47.369Z,13.10
2023-01-29T23:57:53.208Z,13.20
